• Join FlightAware (Why Join?)
  • Login
  • US Flag 
11:24PM EST


 

Airport Tracker/Info


-or-


 

Live Flight TrackerFlight Track Log ✈ BJS339 ✈ 20-Dec-2013 ✈ KAPF - KMIA

Flight Track Log - Related Links

Times and Time Zones

All times are in EST time to prevent confusion due to time zone crossing. See the BJS339 flight status page for this flight to view local times or setup timezone preferences in your user account.

Time Position Orientation Groundspeed Altitude Reporting Facility
EST Latitude Longitude Course Direction KTS MPH feet Rate Location/Type
11:46AM 26.0978 -81.7169 109° East 193 222 4,000  Level Miami Center
11:47AM 26.0750 -81.6489 110° East 221 254 7,800 3,000 Climbing Miami Center
11:48AM 26.0547 -81.5672 105° East 265 305 10,000 1,080 Climbing Miami Center
11:49AM 26.0308 -81.4647 105° East 315 362 10,000  Level Miami Center
11:50AM 26.0069 -81.3597 104° East 347 399 10,000 -60 Level Miami Center
11:51AM 26.0471 -81.3298 109° East  Level Estimated
11:51AM 25.9808 -81.2547 105° East 347 399 9,900  Level Miami Center
11:52AM 25.9564 -81.1683 107° East 339 390 9,900  Level Miami Center
11:52AM 25.9272 -81.0933 113° Southeast 295 339 10,000  Climbing Miami Center
11:53AM 25.9297 -81.0819 76° East 304 350 9,900 -120 Descending Miami Center
11:53AM 25.8983 -81.0047 114° Southeast 294 338 9,900  Level Miami Center
11:54AM 25.9006 -80.9978 70° East 290 334 9,900 -1,380 Level Miami Center
11:54AM 25.8736 -80.9231 112° Southeast 291 335 8,500 -1,500 Descending Miami Center
11:55AM 25.8739 -80.9139 88° East 290 334 8,400 -1,500 Descending Miami Center
11:55AM 25.8656 -80.8350 97° East 282 325 7,000 -1,500 Descending Miami Center
11:56AM 25.8678 -80.8258 75° East 285 328 6,900 -1,620 Descending Miami Center
11:56AM 25.8594 -80.7472 97° East 277 319 5,400 -1,620 Descending Miami Center
11:57AM 25.8617 -80.7425 62° Northeast 280 322 5,300 -1,260 Descending Miami Center
11:58AM 25.8597 -80.6642 92° East 269 310 4,100 -1,140 Descending Miami Center
11:58AM 25.8575 -80.6594 118° Southeast 243 280 4,100 -600 Level Miami Center
11:59AM 25.8572 -80.5900 90° East 251 289 3,500 -660 Descending Miami Center
12:00PM 25.8525 -80.5300 95° East 220 253 2,900 -540 Descending Miami Center
12:00PM 25.8483 -80.5322 206° Southwest 167 192 3,000 -120 Climbing Miami Center
12:01PM 25.8350 -80.4833 107° East 182 209 2,800 -240 Descending Miami Center
12:01PM 25.8308 -80.4831 177° South 170 196 2,800 -840 Level Miami Center
12:02PM 25.8192 -80.4389 106° East 177 204 2,000 -1,020 Descending Miami Center
12:02PM 25.8111 -80.4317 141° Southeast 168 193 1,800 -480 Descending Miami Center
12:03PM 25.8017 -80.3853 103° East 166 191 1,500 -600 Descending Miami Center
12:04PM 25.7986 -80.3461 95° East 118 136 700 -720 Descending Miami Center
12:05PM 25.8017 -80.3069 85° East 123 142 100 -600 Descending Miami Center
12:07PM 25.7954 -80.2901 20° North  Level Estimated